createdAt,value
2023-06-05T00:02:15.498Z,17.34
2023-06-05T00:04:42.271Z,17.29
2023-06-05T00:07:09.044Z,17.32
2023-06-05T00:09:36.157Z,17.33
2023-06-05T00:12:02.930Z,17.38
2023-06-05T00:14:29.592Z,17.31
2023-06-05T00:16:56.424Z,17.30
2023-06-05T00:19:23.312Z,17.23
2023-06-05T00:21:50.092Z,17.22
2023-06-05T00:24:17.116Z,17.18
2023-06-05T00:26:44.049Z,17.13
2023-06-05T00:29:10.929Z,17.05
2023-06-05T00:31:37.718Z,17.12
2023-06-05T00:34:04.399Z,17.08
2023-06-05T00:36:33.418Z,17.07
2023-06-05T00:39:00.089Z,17.08
2023-06-05T00:41:27.003Z,17.09
2023-06-05T00:43:53.738Z,17.05
2023-06-05T00:46:20.662Z,16.94
2023-06-05T00:48:47.780Z,17.02
2023-06-05T00:51:17.813Z,16.99
2023-06-05T00:53:48.337Z,16.88
2023-06-05T00:56:17.368Z,16.81
2023-06-05T00:58:44.164Z,16.92
2023-06-05T01:01:12.542Z,16.87
2023-06-05T01:03:39.670Z,16.77
2023-06-05T01:06:06.648Z,16.74
2023-06-05T01:08:35.049Z,16.71
2023-06-05T01:11:04.526Z,16.69
2023-06-05T01:13:36.265Z,16.70
2023-06-05T01:16:03.841Z,16.73
2023-06-05T01:18:30.772Z,16.77
2023-06-05T01:21:02.074Z,16.74
2023-06-05T01:23:29.134Z,16.79
2023-06-05T01:26:02.523Z,16.80
2023-06-05T01:28:31.926Z,16.80
2023-06-05T01:31:11.615Z,16.78
2023-06-05T01:34:10.366Z,16.75
2023-06-05T01:36:38.859Z,16.57
2023-06-05T01:39:06.337Z,16.56
2023-06-05T01:41:34.447Z,16.63
2023-06-05T01:44:02.305Z,16.64
2023-06-05T01:46:30.196Z,16.60
2023-06-05T01:48:57.621Z,16.62
2023-06-05T01:51:24.317Z,16.61
2023-06-05T01:53:51.023Z,16.58
2023-06-05T01:56:18.020Z,16.56
2023-06-05T01:58:44.789Z,16.47
2023-06-05T02:01:11.432Z,16.47
2023-06-05T02:03:38.361Z,16.45
2023-06-05T02:06:05.401Z,16.46
2023-06-05T02:08:32.214Z,16.38
2023-06-05T02:10:58.904Z,16.35
2023-06-05T02:13:25.631Z,16.39
2023-06-05T02:15:52.274Z,16.36
2023-06-05T02:18:19.223Z,16.35
2023-06-05T02:20:46.069Z,16.26
2023-06-05T02:23:12.832Z,16.21
2023-06-05T02:25:39.544Z,16.15
2023-06-05T02:28:06.345Z,16.14
2023-06-05T02:30:33.209Z,16.14
2023-06-05T02:32:59.878Z,16.15
2023-06-05T02:35:26.629Z,16.11
2023-06-05T02:37:53.543Z,16.13
2023-06-05T02:40:20.514Z,16.12
2023-06-05T02:42:47.214Z,16.06
2023-06-05T02:45:14.198Z,16.08
2023-06-05T02:47:40.952Z,16.11
2023-06-05T02:50:08.673Z,16.01
2023-06-05T02:52:35.378Z,16.04
2023-06-05T02:55:05.404Z,16.04
2023-06-05T02:57:32.515Z,16.03
2023-06-05T02:59:59.484Z,16.02
2023-06-05T03:02:26.572Z,16.01
2023-06-05T03:04:53.309Z,15.97
2023-06-05T03:07:23.268Z,16.05
2023-06-05T03:09:50.055Z,16.01
2023-06-05T03:12:16.737Z,15.95
2023-06-05T03:14:43.463Z,16.00
2023-06-05T03:17:10.136Z,16.05
2023-06-05T03:19:37.005Z,16.07
2023-06-05T03:22:03.988Z,16.13
2023-06-05T03:24:30.816Z,16.18
2023-06-05T03:26:57.494Z,16.18
2023-06-05T03:29:24.447Z,16.17
2023-06-05T03:31:51.445Z,16.21
2023-06-05T03:34:18.104Z,16.25
2023-06-05T03:36:44.806Z,16.24
2023-06-05T03:39:11.462Z,15.92
2023-06-05T03:41:38.153Z,16.08
2023-06-05T03:44:05.105Z,16.19
2023-06-05T03:46:32.035Z,16.05
2023-06-05T03:48:58.745Z,16.07
2023-06-05T03:51:26.899Z,16.15
2023-06-05T03:53:53.599Z,16.21
2023-06-05T03:56:22.861Z,16.31
2023-06-05T03:58:49.539Z,16.28
2023-06-05T04:01:16.287Z,16.27
2023-06-05T04:03:43.271Z,16.36
2023-06-05T04:06:10.078Z,16.52
2023-06-05T04:08:36.852Z,16.66
2023-06-05T04:11:03.535Z,16.67
2023-06-05T04:13:30.362Z,16.76
2023-06-05T04:15:57.312Z,16.84
2023-06-05T04:18:24.191Z,16.95
2023-06-05T04:20:50.930Z,17.06
2023-06-05T04:23:17.823Z,17.23
2023-06-05T04:25:44.512Z,17.16
2023-06-05T04:28:11.398Z,17.22
2023-06-05T04:30:38.524Z,17.42
2023-06-05T04:33:05.482Z,17.54
2023-06-05T04:35:32.278Z,17.45
2023-06-05T04:37:59.205Z,17.44
2023-06-05T04:40:26.269Z,17.66
2023-06-05T04:42:53.019Z,17.84
2023-06-05T04:45:19.865Z,17.86
2023-06-05T04:47:46.811Z,17.78
2023-06-05T04:50:27.928Z,18.01
2023-06-05T04:52:55.007Z,18.04
2023-06-05T04:55:22.440Z,18.28
2023-06-05T04:57:49.477Z,18.23
2023-06-05T05:00:19.234Z,18.45
2023-06-05T05:02:46.487Z,18.62
2023-06-05T05:05:13.417Z,18.59
2023-06-05T05:07:43.421Z,18.79
2023-06-05T05:10:11.182Z,19.05
2023-06-05T05:12:38.427Z,18.97
2023-06-05T05:15:06.297Z,19.16
2023-06-05T05:17:33.218Z,19.28
2023-06-05T05:19:59.990Z,19.40
2023-06-05T05:22:27.887Z,19.28
2023-06-05T05:24:54.981Z,19.47
2023-06-05T05:27:21.801Z,19.48
2023-06-05T05:29:51.214Z,19.57
2023-06-05T05:32:20.521Z,19.59
2023-06-05T05:34:47.311Z,19.86
2023-06-05T05:37:14.567Z,19.75
2023-06-05T05:39:46.829Z,19.84
2023-06-05T05:42:17.094Z,19.98
2023-06-05T05:47:24.659Z,20.28
2023-06-05T05:49:51.392Z,20.27
2023-06-05T05:52:20.428Z,20.48
2023-06-05T05:54:47.183Z,20.36
2023-06-05T05:57:15.280Z,20.27
2023-06-05T05:59:42.220Z,20.44
2023-06-05T06:02:12.656Z,20.40
2023-06-05T06:04:42.586Z,20.54
2023-06-05T06:07:09.431Z,21.00
2023-06-05T06:09:40.767Z,20.76
2023-06-05T06:12:08.013Z,20.96
2023-06-05T06:14:36.020Z,21.29
2023-06-05T06:17:03.674Z,21.32
2023-06-05T06:19:30.462Z,21.39
2023-06-05T06:22:03.012Z,21.16
2023-06-05T06:24:31.426Z,21.68
2023-06-05T06:26:58.900Z,21.58
2023-06-05T06:29:28.333Z,21.31
2023-06-05T06:31:55.104Z,21.36
2023-06-05T06:34:22.164Z,21.54
2023-06-05T06:36:49.009Z,21.60
2023-06-05T06:39:15.878Z,21.63
2023-06-05T06:41:42.692Z,21.63
2023-06-05T06:44:09.611Z,21.90
2023-06-05T06:46:41.302Z,22.04
2023-06-05T06:49:11.100Z,21.82
2023-06-05T06:51:37.864Z,22.10
2023-06-05T06:54:04.576Z,22.05
2023-06-05T06:56:31.281Z,21.90
2023-06-05T06:58:58.042Z,22.08
2023-06-05T07:01:25.135Z,22.17
2023-06-05T07:03:55.180Z,22.38
2023-06-05T07:06:24.679Z,22.34
2023-06-05T07:08:56.580Z,22.65
2023-06-05T07:11:27.062Z,22.77
2023-06-05T07:13:54.286Z,22.97
2023-06-05T07:16:24.559Z,22.85
2023-06-05T07:18:54.320Z,22.92
2023-06-05T07:21:26.390Z,22.84
2023-06-05T07:23:55.319Z,22.80
2023-06-05T07:26:22.238Z,22.92
2023-06-05T07:28:49.160Z,23.11
2023-06-05T07:31:22.296Z,23.13
2023-06-05T07:33:50.069Z,23.37
2023-06-05T07:36:17.096Z,23.36
2023-06-05T07:38:43.769Z,23.49
2023-06-05T07:41:12.454Z,23.75
2023-06-05T07:43:42.419Z,23.75
2023-06-05T07:46:09.252Z,23.90
2023-06-05T07:48:38.771Z,23.83
2023-06-05T07:51:05.549Z,23.98
2023-06-05T07:53:36.548Z,23.79
2023-06-05T07:56:03.885Z,24.12
2023-06-05T07:58:39.716Z,24.24
2023-06-05T08:01:06.395Z,24.13
2023-06-05T08:03:33.231Z,24.21
2023-06-05T08:06:00.255Z,24.06
2023-06-05T08:08:29.396Z,24.40
2023-06-05T08:11:06.950Z,24.44
2023-06-05T08:13:33.862Z,24.67
2023-06-05T08:16:00.780Z,24.70
2023-06-05T08:18:32.884Z,24.86
2023-06-05T08:20:59.753Z,24.97
2023-06-05T08:23:31.261Z,24.99
2023-06-05T08:26:08.140Z,24.76
2023-06-05T08:28:35.009Z,24.61
2023-06-05T08:31:01.916Z,24.99
2023-06-05T08:33:33.789Z,25.07
2023-06-05T08:36:05.968Z,25.04
2023-06-05T08:38:36.124Z,25.13
2023-06-05T08:41:15.204Z,24.80
2023-06-05T08:43:42.093Z,24.92
2023-06-05T08:46:14.456Z,25.01
2023-06-05T08:48:50.832Z,24.74
2023-06-05T08:51:22.271Z,24.87
2023-06-05T08:54:04.147Z,24.91
2023-06-05T08:56:32.704Z,25.13
2023-06-05T08:59:02.401Z,25.21
2023-06-05T09:01:30.925Z,24.97
2023-06-05T09:03:59.175Z,25.00
2023-06-05T09:06:25.947Z,24.84
2023-06-05T09:08:52.772Z,25.03
2023-06-05T09:11:29.370Z,25.17
2023-06-05T09:13:58.465Z,25.10
2023-06-05T09:16:44.996Z,25.04
2023-06-05T09:19:12.787Z,25.16
2023-06-05T09:22:32.791Z,25.26
2023-06-05T09:24:59.658Z,25.29
2023-06-05T09:27:26.614Z,25.14
2023-06-05T09:30:03.970Z,25.11
2023-06-05T09:32:30.870Z,25.19
2023-06-05T09:34:58.176Z,25.23
2023-06-05T09:37:37.331Z,25.10
2023-06-05T09:40:05.522Z,25.22
2023-06-05T09:42:33.281Z,25.08
2023-06-05T09:45:01.545Z,25.24
2023-06-05T09:47:33.137Z,25.31
2023-06-05T09:50:06.016Z,25.45
2023-06-05T09:52:36.155Z,25.48
2023-06-05T09:55:09.365Z,25.44
2023-06-05T09:57:43.487Z,25.44
2023-06-05T10:00:19.905Z,25.25
2023-06-05T10:02:55.370Z,25.44
2023-06-05T10:05:27.938Z,25.32
2023-06-05T10:07:55.002Z,25.50
2023-06-05T10:10:25.927Z,25.65
2023-06-05T10:12:55.704Z,25.65
2023-06-05T10:15:24.983Z,25.53
2023-06-05T10:17:57.129Z,25.33
2023-06-05T10:20:26.377Z,25.59
2023-06-05T10:22:54.177Z,25.66
2023-06-05T10:25:24.892Z,25.71
2023-06-05T10:28:19.170Z,25.33
2023-06-05T10:31:07.437Z,25.62
2023-06-05T10:33:45.687Z,25.83
2023-06-05T10:36:35.655Z,25.87
2023-06-05T10:39:03.854Z,25.74
2023-06-05T10:41:33.430Z,25.84
2023-06-05T10:44:01.476Z,25.82
2023-06-05T10:46:28.199Z,25.87
2023-06-05T10:49:17.302Z,25.76
2023-06-05T10:51:57.504Z,26.02
2023-06-05T10:54:24.305Z,25.89
2023-06-05T10:56:57.322Z,26.06
2023-06-05T10:59:26.382Z,26.13
2023-06-05T11:02:16.172Z,26.13
2023-06-05T11:04:45.555Z,26.18
2023-06-05T11:07:18.785Z,26.10
2023-06-05T11:10:03.503Z,26.11
2023-06-05T11:12:36.869Z,26.09
2023-06-05T11:15:11.356Z,25.98
2023-06-05T11:17:48.397Z,26.12
2023-06-05T11:20:24.510Z,26.20
2023-06-05T11:22:56.263Z,26.10
2023-06-05T11:25:22.879Z,26.12
2023-06-05T11:27:50.540Z,26.23
2023-06-05T11:30:28.017Z,26.02
2023-06-05T11:32:58.180Z,26.15
2023-06-05T11:35:29.273Z,26.20
2023-06-05T11:38:23.693Z,26.13
2023-06-05T11:40:51.233Z,26.26
2023-06-05T11:43:18.057Z,26.12
2023-06-05T11:46:05.052Z,26.03
2023-06-05T11:48:43.396Z,25.98
2023-06-05T11:51:10.268Z,26.00
2023-06-05T11:53:44.021Z,26.03
2023-06-05T11:56:15.245Z,25.89
2023-06-05T11:58:42.776Z,26.04
2023-06-05T12:01:19.799Z,26.17
2023-06-05T12:04:07.564Z,26.17
2023-06-05T12:06:46.000Z,26.13
2023-06-05T12:09:13.819Z,25.98
2023-06-05T12:11:42.263Z,26.18
2023-06-05T12:14:10.856Z,26.31
2023-06-05T12:16:46.258Z,26.18
2023-06-05T12:19:22.016Z,26.19
2023-06-05T12:22:03.391Z,26.19
2023-06-05T12:24:30.243Z,26.41
2023-06-05T12:26:59.594Z,26.39
2023-06-05T12:29:34.837Z,26.41
2023-06-05T12:32:03.579Z,26.27
2023-06-05T12:34:56.928Z,26.33
2023-06-05T12:37:36.236Z,26.41
2023-06-05T12:40:06.750Z,26.40
2023-06-05T12:42:36.942Z,26.31
2023-06-05T12:45:07.822Z,26.23
2023-06-05T12:47:35.411Z,26.30
2023-06-05T12:50:07.773Z,26.23
2023-06-05T12:52:35.212Z,26.18
2023-06-05T12:55:02.527Z,26.34
2023-06-05T12:57:29.271Z,26.28
2023-06-05T13:00:02.103Z,26.29
2023-06-05T13:02:28.952Z,26.44
2023-06-05T13:04:55.944Z,26.48
2023-06-05T13:07:25.716Z,26.51
2023-06-05T13:09:57.194Z,26.41
2023-06-05T13:12:23.969Z,26.53
2023-06-05T13:14:50.756Z,26.50
2023-06-05T13:17:20.665Z,26.50
2023-06-05T13:19:47.744Z,26.51
2023-06-05T13:22:14.695Z,26.53
2023-06-05T13:24:41.372Z,26.43
2023-06-05T13:27:08.159Z,26.52
2023-06-05T13:29:35.134Z,26.46
2023-06-05T13:32:01.998Z,26.54
2023-06-05T13:34:30.310Z,26.51
2023-06-05T13:37:02.679Z,26.41
2023-06-05T13:39:37.073Z,26.44
2023-06-05T13:42:04.003Z,26.41
2023-06-05T13:44:33.501Z,26.43
2023-06-05T13:47:02.402Z,26.34
2023-06-05T13:49:29.552Z,26.37
2023-06-05T13:51:56.475Z,26.39
2023-06-05T13:54:23.715Z,26.50
2023-06-05T13:56:50.624Z,26.36
2023-06-05T13:59:17.576Z,26.47
2023-06-05T14:01:44.330Z,26.48
2023-06-05T14:04:11.522Z,26.44
2023-06-05T14:06:38.260Z,26.50
2023-06-05T14:09:05.662Z,26.46
2023-06-05T14:11:32.829Z,26.50
2023-06-05T14:13:59.597Z,26.41
2023-06-05T14:16:27.319Z,26.54
2023-06-05T14:18:54.078Z,26.46
2023-06-05T14:21:23.260Z,26.52
2023-06-05T14:23:51.247Z,26.39
2023-06-05T14:26:21.140Z,26.39
2023-06-05T14:28:47.823Z,26.42
2023-06-05T14:31:16.586Z,26.47
2023-06-05T14:33:43.563Z,26.57
2023-06-05T14:36:10.511Z,26.61
2023-06-05T14:38:37.669Z,26.55
2023-06-05T14:41:04.583Z,26.60
2023-06-05T14:43:31.272Z,26.61
2023-06-05T14:45:58.027Z,26.59
2023-06-05T14:48:24.926Z,26.58
2023-06-05T14:50:51.760Z,26.63
2023-06-05T14:53:18.641Z,26.46
2023-06-05T14:55:46.184Z,26.38
2023-06-05T14:58:12.917Z,26.34
2023-06-05T15:00:42.324Z,26.29
2023-06-05T15:03:09.706Z,26.27
2023-06-05T15:05:36.595Z,26.20
2023-06-05T15:08:03.695Z,26.32
2023-06-05T15:10:30.722Z,26.27
2023-06-05T15:12:57.607Z,26.30
2023-06-05T15:15:27.565Z,26.26
2023-06-05T15:17:54.290Z,26.17
2023-06-05T15:20:24.673Z,26.20
2023-06-05T15:23:11.405Z,26.15
2023-06-05T15:25:40.742Z,26.19
2023-06-05T15:28:07.453Z,26.06
2023-06-05T15:30:34.199Z,26.15
2023-06-05T15:33:01.119Z,26.14
2023-06-05T15:35:27.822Z,26.14
2023-06-05T15:37:54.618Z,26.11
2023-06-05T15:40:21.404Z,25.93
2023-06-05T15:43:03.490Z,26.02
2023-06-05T15:45:30.191Z,25.98
2023-06-05T15:47:56.870Z,25.91
2023-06-05T15:50:23.757Z,25.95
2023-06-05T15:52:50.799Z,25.94
2023-06-05T15:55:17.561Z,25.93
2023-06-05T15:57:44.433Z,25.88
2023-06-05T16:00:11.607Z,25.86
2023-06-05T16:02:41.320Z,25.88
2023-06-05T16:05:09.056Z,25.75
2023-06-05T16:07:36.021Z,25.76
2023-06-05T16:10:03.255Z,25.79
2023-06-05T16:12:29.970Z,25.74
2023-06-05T16:14:56.907Z,25.70
2023-06-05T16:17:23.977Z,25.69
2023-06-05T16:19:52.949Z,25.56
2023-06-05T16:22:20.578Z,25.41
2023-06-05T16:24:47.309Z,25.46
2023-06-05T16:27:14.274Z,25.41
2023-06-05T16:29:41.068Z,25.39
2023-06-05T16:32:08.081Z,25.27
2023-06-05T16:34:34.939Z,25.27
2023-06-05T16:37:01.758Z,25.24
2023-06-05T16:39:28.576Z,25.20
2023-06-05T16:41:55.345Z,25.19
2023-06-05T16:44:22.260Z,25.10
2023-06-05T16:46:49.155Z,25.09
2023-06-05T16:49:15.965Z,25.06
2023-06-05T16:51:42.754Z,25.04
2023-06-05T16:54:09.499Z,25.03
2023-06-05T16:56:36.446Z,24.97
2023-06-05T16:59:13.589Z,24.96
2023-06-05T17:01:40.377Z,24.90
2023-06-05T17:04:08.885Z,24.84
2023-06-05T17:06:36.399Z,24.82
2023-06-05T17:09:03.696Z,24.76
2023-06-05T17:11:30.618Z,24.68
2023-06-05T17:13:57.322Z,24.69
2023-06-05T17:16:24.339Z,24.66
2023-06-05T17:18:51.106Z,24.63
2023-06-05T17:21:17.979Z,24.60
2023-06-05T17:23:44.908Z,24.55
2023-06-05T17:26:11.638Z,24.52
2023-06-05T17:28:41.199Z,24.48
2023-06-05T17:31:08.379Z,24.42
2023-06-05T17:33:35.344Z,24.40
2023-06-05T17:36:02.126Z,24.29
2023-06-05T17:38:28.783Z,24.23
2023-06-05T17:40:55.420Z,24.19
2023-06-05T17:43:22.244Z,24.09
2023-06-05T17:45:49.098Z,24.12
2023-06-05T17:48:16.150Z,24.11
2023-06-05T17:50:44.067Z,24.06
2023-06-05T17:53:10.962Z,23.98
2023-06-05T17:55:37.691Z,23.95
2023-06-05T17:58:04.463Z,23.88
2023-06-05T18:00:31.575Z,23.81
2023-06-05T18:02:58.729Z,23.75
2023-06-05T18:05:28.294Z,23.67
2023-06-05T18:07:54.967Z,23.70
2023-06-05T18:10:22.033Z,23.68
2023-06-05T18:12:49.107Z,23.59
2023-06-05T18:15:15.917Z,23.58
2023-06-05T18:17:42.631Z,23.56
2023-06-05T18:20:10.050Z,23.54
2023-06-05T18:22:36.845Z,23.53
2023-06-05T18:25:04.079Z,23.45
2023-06-05T18:27:30.764Z,23.43
2023-06-05T18:29:57.458Z,23.39
2023-06-05T18:32:24.153Z,23.32
2023-06-05T18:34:50.927Z,23.32
2023-06-05T18:37:17.658Z,23.26
2023-06-05T18:39:44.557Z,23.24
2023-06-05T18:42:11.302Z,23.20
2023-06-05T18:44:38.892Z,23.18
2023-06-05T18:47:07.787Z,23.09
2023-06-05T18:49:34.551Z,23.11
2023-06-05T18:52:03.006Z,23.11
2023-06-05T18:54:29.870Z,23.07
2023-06-05T18:56:56.611Z,23.08
2023-06-05T18:59:23.255Z,23.08
2023-06-05T19:01:50.096Z,22.96
2023-06-05T19:04:16.840Z,22.84
2023-06-05T19:06:43.884Z,22.74
2023-06-05T19:09:10.549Z,22.79
2023-06-05T19:11:38.931Z,22.77
2023-06-05T19:14:05.910Z,22.76
2023-06-05T19:16:32.913Z,22.65
2023-06-05T19:18:59.797Z,22.56
2023-06-05T19:21:26.738Z,22.53
2023-06-05T19:23:53.502Z,22.45
2023-06-05T19:26:20.236Z,22.47
2023-06-05T19:28:46.915Z,22.52
2023-06-05T19:31:13.838Z,22.51
2023-06-05T19:33:41.593Z,22.47
2023-06-05T19:36:08.620Z,22.45
2023-06-05T19:38:35.504Z,22.40
2023-06-05T19:41:02.211Z,22.39
2023-06-05T19:43:29.271Z,22.39
2023-06-05T19:45:56.142Z,22.34
2023-06-05T19:48:23.036Z,22.33
2023-06-05T19:50:49.897Z,22.29
2023-06-05T19:53:19.589Z,22.25
2023-06-05T19:55:46.590Z,22.23
2023-06-05T19:58:13.464Z,22.16
2023-06-05T20:00:41.650Z,22.13
2023-06-05T20:03:08.512Z,22.09
2023-06-05T20:05:35.236Z,22.02
2023-06-05T20:08:02.023Z,22.01
2023-06-05T20:10:29.249Z,22.01
2023-06-05T20:12:55.950Z,22.01
2023-06-05T20:15:22.584Z,21.99
2023-06-05T20:17:49.317Z,21.99
2023-06-05T20:20:16.010Z,21.98
2023-06-05T20:22:42.717Z,21.94
2023-06-05T20:25:09.916Z,21.92
2023-06-05T20:27:36.778Z,21.90
2023-06-05T20:30:03.626Z,21.85
2023-06-05T20:32:30.327Z,21.85
2023-06-05T20:34:57.097Z,21.83
2023-06-05T20:37:23.728Z,21.82
2023-06-05T20:39:50.404Z,21.80
2023-06-05T20:42:17.138Z,21.72
2023-06-05T20:44:43.912Z,21.66
2023-06-05T20:47:10.714Z,21.63
2023-06-05T20:49:37.426Z,21.58
2023-06-05T20:52:04.655Z,21.54
2023-06-05T20:54:31.390Z,21.52
2023-06-05T20:57:09.078Z,21.50
2023-06-05T20:59:35.775Z,21.46
2023-06-05T21:02:02.547Z,21.45
2023-06-05T21:04:29.579Z,21.41
2023-06-05T21:06:56.302Z,21.32
2023-06-05T21:09:23.103Z,21.34
2023-06-05T21:11:49.846Z,21.30
2023-06-05T21:14:16.525Z,21.27
2023-06-05T21:16:43.279Z,21.23
2023-06-05T21:19:10.002Z,21.15
2023-06-05T21:21:36.696Z,21.10
2023-06-05T21:24:03.595Z,21.10
2023-06-05T21:26:30.474Z,21.08
2023-06-05T21:28:57.253Z,21.06
2023-06-05T21:31:23.956Z,21.03
2023-06-05T21:33:50.778Z,20.99
2023-06-05T21:36:17.705Z,20.92
2023-06-05T21:38:44.557Z,20.86
2023-06-05T21:41:11.474Z,20.70
2023-06-05T21:43:38.312Z,20.72
2023-06-05T21:46:05.097Z,20.63
2023-06-05T21:48:31.840Z,20.63
2023-06-05T21:50:58.546Z,20.57
2023-06-05T21:53:25.452Z,20.63
2023-06-05T21:55:52.124Z,20.60
2023-06-05T21:58:18.901Z,20.62
2023-06-05T22:00:45.716Z,20.65
2023-06-05T22:03:12.499Z,20.71
2023-06-05T22:05:39.278Z,20.75
2023-06-05T22:08:06.084Z,20.72
2023-06-05T22:10:32.795Z,20.77
2023-06-05T22:12:59.523Z,20.72
2023-06-05T22:15:26.190Z,20.76
2023-06-05T22:17:53.113Z,20.76
2023-06-05T22:20:19.867Z,20.70
2023-06-05T22:22:46.738Z,20.67
2023-06-05T22:25:13.690Z,20.57
2023-06-05T22:27:40.384Z,20.64
2023-06-05T22:30:07.915Z,20.59
2023-06-05T22:32:35.810Z,20.60
2023-06-05T22:35:02.508Z,20.63
2023-06-05T22:37:29.267Z,20.55
2023-06-05T22:39:56.121Z,20.56
2023-06-05T22:42:22.873Z,20.56
2023-06-05T22:44:49.606Z,20.54
2023-06-05T22:47:16.261Z,20.50
2023-06-05T22:49:43.312Z,20.51
2023-06-05T22:52:10.192Z,20.56
2023-06-05T22:54:37.383Z,20.54
2023-06-05T22:57:04.495Z,20.44
2023-06-05T22:59:31.492Z,20.44
2023-06-05T23:01:58.598Z,20.43
2023-06-05T23:04:25.389Z,20.45
2023-06-05T23:06:52.612Z,20.42
2023-06-05T23:09:20.295Z,20.36
2023-06-05T23:11:47.157Z,20.37
2023-06-05T23:14:14.132Z,20.33
2023-06-05T23:16:40.831Z,20.31
2023-06-05T23:19:07.609Z,20.31
2023-06-05T23:21:34.302Z,20.35
2023-06-05T23:24:01.124Z,20.34
2023-06-05T23:26:27.963Z,20.31
2023-06-05T23:28:54.744Z,20.32
2023-06-05T23:31:21.501Z,20.30
2023-06-05T23:33:48.314Z,20.30
2023-06-05T23:36:15.104Z,20.25
2023-06-05T23:38:41.880Z,20.22
2023-06-05T23:41:08.702Z,20.08
2023-06-05T23:43:35.541Z,20.15
2023-06-05T23:46:02.392Z,20.13
2023-06-05T23:48:29.144Z,20.07
2023-06-05T23:50:55.968Z,20.14
2023-06-05T23:53:22.638Z,20.13
2023-06-05T23:55:49.385Z,20.04
2023-06-05T23:58:16.103Z,20.00
